Bench Drive, Washington
Current Conditions -  °F | °C
As of 10:02 PM on Tuesday 25 Nov 2014 (Local Time) from KHQM Reporting Station
Haze Haze  
Wind Chill: 55°   Ceiling: 800
Heat Index: 55°   Visibility: 4mi
Dew Point: 55°   Wind: 22mph
Humidity: 100%   Direction: 200°SSW
Pressure: 30.2"   Gusts: NA
Location:  47.1445°N, 123.771°W
Report Text: KHQM 260602Z AUTO 20019KT 4SM BR OVC008 13/13 A3020 RMK AO2 PK WND 20026/0558 RAE02 CIG 005V013 P0000 T01280128
Loading
Personal Weather Stations






























Interactive Weather Map New forecast layout! Learn more

10-Day Weather Forecast

Advertisements
Track Severe Weather on mobile